sensor_id;sensor_type;location;lat;lon;timestamp;P1;durP1;ratioP1;P2;durP2;ratioP2
40373;SDS011;26079;45.958;12.492;2023-05-07T00:01:42;131.70;;;124.07;;
40373;SDS011;26079;45.958;12.492;2023-05-07T00:04:08;128.85;;;121.53;;
40373;SDS011;26079;45.958;12.492;2023-05-07T00:06:34;133.88;;;125.82;;
40373;SDS011;26079;45.958;12.492;2023-05-07T00:09:00;117.47;;;110.32;;
40373;SDS011;26079;45.958;12.492;2023-05-07T00:11:26;241.60;;;224.25;;
40373;SDS011;26079;45.958;12.492;2023-05-07T00:13:53;150.05;;;140.88;;
40373;SDS011;26079;45.958;12.492;2023-05-07T00:16:19;129.07;;;121.15;;
40373;SDS011;26079;45.958;12.492;2023-05-07T00:18:44;144.13;;;135.55;;
40373;SDS011;26079;45.958;12.492;2023-05-07T00:21:11;129.05;;;121.22;;
40373;SDS011;26079;45.958;12.492;2023-05-07T00:23:36;204.20;;;191.13;;
40373;SDS011;26079;45.958;12.492;2023-05-07T00:26:02;152.18;;;143.07;;
40373;SDS011;26079;45.958;12.492;2023-05-07T00:28:28;163.30;;;153.25;;
40373;SDS011;26079;45.958;12.492;2023-05-07T00:30:54;161.40;;;151.68;;
40373;SDS011;26079;45.958;12.492;2023-05-07T00:33:20;152.70;;;143.00;;
40373;SDS011;26079;45.958;12.492;2023-05-07T00:35:46;157.10;;;147.73;;
40373;SDS011;26079;45.958;12.492;2023-05-07T00:38:11;128.60;;;121.15;;
40373;SDS011;26079;45.958;12.492;2023-05-07T00:40:37;139.18;;;130.82;;
40373;SDS011;26079;45.958;12.492;2023-05-07T00:43:02;139.73;;;131.40;;
40373;SDS011;26079;45.958;12.492;2023-05-07T00:45:28;157.07;;;147.68;;
40373;SDS011;26079;45.958;12.492;2023-05-07T00:47:58;123.38;;;116.22;;
40373;SDS011;26079;45.958;12.492;2023-05-07T00:50:25;97.80;;;91.95;;
40373;SDS011;26079;45.958;12.492;2023-05-07T00:52:52;119.93;;;112.68;;
40373;SDS011;26079;45.958;12.492;2023-05-07T00:55:18;137.88;;;129.38;;
40373;SDS011;26079;45.958;12.492;2023-05-07T00:57:45;211.68;;;197.88;;
40373;SDS011;26079;45.958;12.492;2023-05-07T01:00:11;197.63;;;184.90;;
40373;SDS011;26079;45.958;12.492;2023-05-07T01:02:40;190.52;;;177.85;;
40373;SDS011;26079;45.958;12.492;2023-05-07T01:05:16;204.35;;;190.57;;
40373;SDS011;26079;45.958;12.492;2023-05-07T01:07:44;193.25;;;180.32;;
40373;SDS011;26079;45.958;12.492;2023-05-07T01:10:10;197.90;;;185.00;;
40373;SDS011;26079;45.958;12.492;2023-05-07T01:12:37;195.65;;;182.35;;
40373;SDS011;26079;45.958;12.492;2023-05-07T01:15:05;199.02;;;186.45;;
40373;SDS011;26079;45.958;12.492;2023-05-07T01:17:35;192.07;;;180.02;;
40373;SDS011;26079;45.958;12.492;2023-05-07T01:20:01;195.35;;;182.43;;
40373;SDS011;26079;45.958;12.492;2023-05-07T01:22:33;193.23;;;180.18;;
40373;SDS011;26079;45.958;12.492;2023-05-07T01:25:01;195.63;;;182.57;;
40373;SDS011;26079;45.958;12.492;2023-05-07T01:27:28;210.60;;;196.23;;
40373;SDS011;26079;45.958;12.492;2023-05-07T01:29:54;198.00;;;184.30;;
40373;SDS011;26079;45.958;12.492;2023-05-07T01:32:21;195.50;;;182.30;;
40373;SDS011;26079;45.958;12.492;2023-05-07T01:35:10;186.05;;;174.00;;
40373;SDS011;26079;45.958;12.492;2023-05-07T01:37:37;177.25;;;165.82;;
40373;SDS011;26079;45.958;12.492;2023-05-07T01:40:04;177.98;;;166.20;;
40373;SDS011;26079;45.958;12.492;2023-05-07T01:42:32;174.98;;;163.82;;
40373;SDS011;26079;45.958;12.492;2023-05-07T01:44:58;166.70;;;156.27;;
40373;SDS011;26079;45.958;12.492;2023-05-07T01:47:24;171.95;;;160.55;;
40373;SDS011;26079;45.958;12.492;2023-05-07T01:49:50;193.88;;;180.70;;
40373;SDS011;26079;45.958;12.492;2023-05-07T01:52:16;149.45;;;140.55;;
40373;SDS011;26079;45.958;12.492;2023-05-07T01:54:42;135.20;;;127.03;;
40373;SDS011;26079;45.958;12.492;2023-05-07T01:57:08;151.38;;;141.88;;
40373;SDS011;26079;45.958;12.492;2023-05-07T01:59:33;144.43;;;135.38;;
40373;SDS011;26079;45.958;12.492;2023-05-07T02:01:59;144.38;;;135.10;;
40373;SDS011;26079;45.958;12.492;2023-05-07T02:04:25;154.13;;;144.27;;
40373;SDS011;26079;45.958;12.492;2023-05-07T02:06:51;150.40;;;140.55;;
40373;SDS011;26079;45.958;12.492;2023-05-07T02:09:17;164.57;;;154.02;;
40373;SDS011;26079;45.958;12.492;2023-05-07T02:11:44;175.18;;;164.43;;
40373;SDS011;26079;45.958;12.492;2023-05-07T02:14:09;170.75;;;160.02;;
40373;SDS011;26079;45.958;12.492;2023-05-07T02:16:35;165.90;;;155.18;;
40373;SDS011;26079;45.958;12.492;2023-05-07T02:19:01;171.63;;;160.57;;
40373;SDS011;26079;45.958;12.492;2023-05-07T02:21:27;171.07;;;159.52;;
40373;SDS011;26079;45.958;12.492;2023-05-07T02:23:53;179.25;;;167.75;;
40373;SDS011;26079;45.958;12.492;2023-05-07T02:26:19;184.00;;;171.82;;
40373;SDS011;26079;45.958;12.492;2023-05-07T02:28:44;174.13;;;162.85;;
40373;SDS011;26079;45.958;12.492;2023-05-07T02:31:10;176.00;;;164.68;;
40373;SDS011;26079;45.958;12.492;2023-05-07T02:33:35;157.45;;;147.23;;
40373;SDS011;26079;45.958;12.492;2023-05-07T02:36:05;164.05;;;153.43;;
40373;SDS011;26079;45.958;12.492;2023-05-07T02:38:39;154.20;;;144.93;;
40373;SDS011;26079;45.958;12.492;2023-05-07T02:41:05;167.32;;;157.02;;
40373;SDS011;26079;45.958;12.492;2023-05-07T02:43:30;152.75;;;143.07;;
40373;SDS011;26079;45.958;12.492;2023-05-07T02:46:00;162.95;;;152.82;;
40373;SDS011;26079;45.958;12.492;2023-05-07T02:48:29;146.88;;;137.80;;
40373;SDS011;26079;45.958;12.492;2023-05-07T02:50:55;150.25;;;141.15;;
40373;SDS011;26079;45.958;12.492;2023-05-07T02:53:20;157.93;;;148.20;;
40373;SDS011;26079;45.958;12.492;2023-05-07T02:55:46;160.07;;;150.15;;
40373;SDS011;26079;45.958;12.492;2023-05-07T02:58:12;160.23;;;149.88;;
40373;SDS011;26079;45.958;12.492;2023-05-07T03:00:37;148.75;;;139.52;;
40373;SDS011;26079;45.958;12.492;2023-05-07T03:03:03;154.45;;;145.02;;
40373;SDS011;26079;45.958;12.492;2023-05-07T03:05:29;152.65;;;143.40;;
40373;SDS011;26079;45.958;12.492;2023-05-07T03:07:55;151.40;;;142.23;;
40373;SDS011;26079;45.958;12.492;2023-05-07T03:10:20;151.98;;;142.70;;
40373;SDS011;26079;45.958;12.492;2023-05-07T03:12:46;147.20;;;138.27;;
40373;SDS011;26079;45.958;12.492;2023-05-07T03:15:12;153.40;;;143.88;;
40373;SDS011;26079;45.958;12.492;2023-05-07T03:17:37;150.20;;;140.98;;
40373;SDS011;26079;45.958;12.492;2023-05-07T03:20:04;147.88;;;139.00;;
40373;SDS011;26079;45.958;12.492;2023-05-07T03:22:30;151.15;;;142.13;;
40373;SDS011;26079;45.958;12.492;2023-05-07T03:24:56;149.13;;;139.73;;
40373;SDS011;26079;45.958;12.492;2023-05-07T03:27:21;140.27;;;131.48;;
40373;SDS011;26079;45.958;12.492;2023-05-07T03:29:47;153.35;;;143.57;;
40373;SDS011;26079;45.958;12.492;2023-05-07T03:32:13;143.60;;;134.88;;
40373;SDS011;26079;45.958;12.492;2023-05-07T03:34:39;145.52;;;136.55;;
40373;SDS011;26079;45.958;12.492;2023-05-07T03:37:05;145.45;;;136.60;;
40373;SDS011;26079;45.958;12.492;2023-05-07T03:39:31;135.57;;;127.32;;
40373;SDS011;26079;45.958;12.492;2023-05-07T03:41:57;144.95;;;136.43;;
40373;SDS011;26079;45.958;12.492;2023-05-07T03:44:23;145.40;;;136.45;;
40373;SDS011;26079;45.958;12.492;2023-05-07T03:46:48;145.52;;;136.95;;
40373;SDS011;26079;45.958;12.492;2023-05-07T03:49:14;139.80;;;131.00;;
40373;SDS011;26079;45.958;12.492;2023-05-07T03:51:40;137.35;;;129.13;;
40373;SDS011;26079;45.958;12.492;2023-05-07T03:54:06;135.57;;;127.45;;
40373;SDS011;26079;45.958;12.492;2023-05-07T03:56:32;143.70;;;135.27;;
40373;SDS011;26079;45.958;12.492;2023-05-07T03:58:57;142.40;;;134.02;;
40373;SDS011;26079;45.958;12.492;2023-05-07T04:01:23;145.20;;;136.50;;
40373;SDS011;26079;45.958;12.492;2023-05-07T04:03:49;149.80;;;140.25;;
40373;SDS011;26079;45.958;12.492;2023-05-07T04:06:15;136.85;;;128.57;;
40373;SDS011;26079;45.958;12.492;2023-05-07T04:08:42;138.25;;;129.80;;
40373;SDS011;26079;45.958;12.492;2023-05-07T04:11:07;143.27;;;134.20;;
40373;SDS011;26079;45.958;12.492;2023-05-07T04:13:33;158.80;;;148.65;;
40373;SDS011;26079;45.958;12.492;2023-05-07T04:16:00;174.32;;;162.38;;
40373;SDS011;26079;45.958;12.492;2023-05-07T04:18:27;176.90;;;165.40;;
40373;SDS011;26079;45.958;12.492;2023-05-07T04:20:53;166.60;;;156.60;;
40373;SDS011;26079;45.958;12.492;2023-05-07T04:23:18;162.75;;;152.98;;
40373;SDS011;26079;45.958;12.492;2023-05-07T04:25:44;137.90;;;129.80;;
40373;SDS011;26079;45.958;12.492;2023-05-07T04:28:10;137.32;;;129.20;;
40373;SDS011;26079;45.958;12.492;2023-05-07T04:30:36;145.43;;;136.63;;
40373;SDS011;26079;45.958;12.492;2023-05-07T04:33:02;140.23;;;131.90;;
40373;SDS011;26079;45.958;12.492;2023-05-07T04:35:27;131.65;;;123.68;;
40373;SDS011;26079;45.958;12.492;2023-05-07T04:37:53;124.18;;;116.95;;
40373;SDS011;26079;45.958;12.492;2023-05-07T04:40:19;139.48;;;131.27;;
40373;SDS011;26079;45.958;12.492;2023-05-07T04:42:45;148.82;;;139.73;;
40373;SDS011;26079;45.958;12.492;2023-05-07T04:45:10;158.73;;;149.07;;
40373;SDS011;26079;45.958;12.492;2023-05-07T04:47:37;165.70;;;155.82;;
40373;SDS011;26079;45.958;12.492;2023-05-07T04:50:03;152.95;;;143.57;;
40373;SDS011;26079;45.958;12.492;2023-05-07T04:52:29;145.30;;;136.60;;
40373;SDS011;26079;45.958;12.492;2023-05-07T04:54:56;165.85;;;155.88;;
40373;SDS011;26079;45.958;12.492;2023-05-07T04:57:21;160.80;;;151.13;;
40373;SDS011;26079;45.958;12.492;2023-05-07T04:59:47;177.45;;;166.57;;
40373;SDS011;26079;45.958;12.492;2023-05-07T05:02:12;168.68;;;158.50;;
40373;SDS011;26079;45.958;12.492;2023-05-07T05:04:38;170.45;;;160.02;;
40373;SDS011;26079;45.958;12.492;2023-05-07T05:07:04;169.65;;;159.27;;
40373;SDS011;26079;45.958;12.492;2023-05-07T05:09:29;174.93;;;163.20;;
40373;SDS011;26079;45.958;12.492;2023-05-07T05:11:55;186.73;;;175.32;;
40373;SDS011;26079;45.958;12.492;2023-05-07T05:14:21;175.48;;;164.80;;
40373;SDS011;26079;45.958;12.492;2023-05-07T05:16:46;187.57;;;176.20;;
40373;SDS011;26079;45.958;12.492;2023-05-07T05:19:12;426.88;;;390.50;;
40373;SDS011;26079;45.958;12.492;2023-05-07T05:21:38;223.32;;;209.80;;
40373;SDS011;26079;45.958;12.492;2023-05-07T05:24:03;152.10;;;143.45;;
40373;SDS011;26079;45.958;12.492;2023-05-07T05:26:29;120.20;;;113.10;;
40373;SDS011;26079;45.958;12.492;2023-05-07T05:28:55;43.20;;;40.67;;
40373;SDS011;26079;45.958;12.492;2023-05-07T05:31:20;31.63;;;29.83;;
40373;SDS011;26079;45.958;12.492;2023-05-07T05:33:46;13.48;;;12.38;;
40373;SDS011;26079;45.958;12.492;2023-05-07T05:36:12;15.60;;;14.45;;
40373;SDS011;26079;45.958;12.492;2023-05-07T05:38:38;14.13;;;13.20;;
40373;SDS011;26079;45.958;12.492;2023-05-07T05:41:04;22.55;;;21.25;;
40373;SDS011;26079;45.958;12.492;2023-05-07T05:43:30;19.20;;;18.05;;
40373;SDS011;26079;45.958;12.492;2023-05-07T05:45:56;8.45;;;7.18;;
40373;SDS011;26079;45.958;12.492;2023-05-07T05:48:22;8.15;;;7.13;;
40373;SDS011;26079;45.958;12.492;2023-05-07T05:50:48;7.85;;;7.22;;
40373;SDS011;26079;45.958;12.492;2023-05-07T05:53:14;13.82;;;7.72;;
40373;SDS011;26079;45.958;12.492;2023-05-07T05:55:41;7.43;;;6.85;;
40373;SDS011;26079;45.958;12.492;2023-05-07T05:58:07;7.22;;;6.57;;
40373;SDS011;26079;45.958;12.492;2023-05-07T06:00:33;8.02;;;7.22;;
40373;SDS011;26079;45.958;12.492;2023-05-07T06:02:59;8.15;;;7.50;;
40373;SDS011;26079;45.958;12.492;2023-05-07T06:05:25;10.40;;;9.50;;
40373;SDS011;26079;45.958;12.492;2023-05-07T06:07:50;8.98;;;8.07;;
40373;SDS011;26079;45.958;12.492;2023-05-07T06:10:16;8.98;;;8.25;;
40373;SDS011;26079;45.958;12.492;2023-05-07T06:12:42;7.95;;;7.18;;
40373;SDS011;26079;45.958;12.492;2023-05-07T06:15:07;7.85;;;7.25;;
40373;SDS011;26079;45.958;12.492;2023-05-07T06:17:33;11.13;;;8.02;;
40373;SDS011;26079;45.958;12.492;2023-05-07T06:19:59;8.05;;;7.45;;
40373;SDS011;26079;45.958;12.492;2023-05-07T06:22:25;9.52;;;8.80;;
40373;SDS011;26079;45.958;12.492;2023-05-07T06:24:50;9.80;;;8.90;;
40373;SDS011;26079;45.958;12.492;2023-05-07T06:27:16;9.30;;;8.70;;
40373;SDS011;26079;45.958;12.492;2023-05-07T06:29:42;8.05;;;6.90;;
40373;SDS011;26079;45.958;12.492;2023-05-07T06:32:08;7.90;;;7.15;;
40373;SDS011;26079;45.958;12.492;2023-05-07T06:34:35;9.95;;;7.40;;
40373;SDS011;26079;45.958;12.492;2023-05-07T06:37:02;9.30;;;7.57;;
40373;SDS011;26079;45.958;12.492;2023-05-07T06:39:27;8.43;;;7.60;;
40373;SDS011;26079;45.958;12.492;2023-05-07T06:41:53;8.85;;;8.15;;
40373;SDS011;26079;45.958;12.492;2023-05-07T06:44:19;8.25;;;7.55;;
40373;SDS011;26079;45.958;12.492;2023-05-07T06:46:44;8.27;;;7.53;;
40373;SDS011;26079;45.958;12.492;2023-05-07T06:49:11;14.23;;;12.52;;
40373;SDS011;26079;45.958;12.492;2023-05-07T06:51:38;11.55;;;10.55;;
40373;SDS011;26079;45.958;12.492;2023-05-07T06:54:04;12.13;;;9.98;;
40373;SDS011;26079;45.958;12.492;2023-05-07T06:56:30;14.60;;;13.52;;
40373;SDS011;26079;45.958;12.492;2023-05-07T06:58:56;51.67;;;48.67;;
40373;SDS011;26079;45.958;12.492;2023-05-07T07:01:22;29.15;;;27.00;;
40373;SDS011;26079;45.958;12.492;2023-05-07T07:03:48;27.60;;;25.60;;
40373;SDS011;26079;45.958;12.492;2023-05-07T07:06:14;59.10;;;55.30;;
40373;SDS011;26079;45.958;12.492;2023-05-07T07:08:39;153.27;;;143.75;;
40373;SDS011;26079;45.958;12.492;2023-05-07T07:11:05;30.23;;;28.25;;
40373;SDS011;26079;45.958;12.492;2023-05-07T07:13:31;10.52;;;9.75;;
40373;SDS011;26079;45.958;12.492;2023-05-07T07:15:57;17.42;;;16.38;;
40373;SDS011;26079;45.958;12.492;2023-05-07T07:18:23;12.70;;;10.05;;
40373;SDS011;26079;45.958;12.492;2023-05-07T07:20:48;16.95;;;15.82;;
40373;SDS011;26079;45.958;12.492;2023-05-07T07:23:14;11.10;;;9.45;;
40373;SDS011;26079;45.958;12.492;2023-05-07T07:25:40;18.85;;;17.52;;
40373;SDS011;26079;45.958;12.492;2023-05-07T07:28:06;23.75;;;22.23;;
40373;SDS011;26079;45.958;12.492;2023-05-07T07:30:32;29.13;;;27.25;;
40373;SDS011;26079;45.958;12.492;2023-05-07T07:32:57;23.95;;;22.38;;
40373;SDS011;26079;45.958;12.492;2023-05-07T07:35:28;11.55;;;10.68;;
40373;SDS011;26079;45.958;12.492;2023-05-07T07:37:54;9.85;;;9.00;;
40373;SDS011;26079;45.958;12.492;2023-05-07T07:40:20;10.18;;;9.48;;
40373;SDS011;26079;45.958;12.492;2023-05-07T07:42:46;17.90;;;16.25;;
40373;SDS011;26079;45.958;12.492;2023-05-07T07:45:11;14.30;;;13.38;;
40373;SDS011;26079;45.958;12.492;2023-05-07T07:47:37;9.13;;;8.07;;
40373;SDS011;26079;45.958;12.492;2023-05-07T07:50:04;8.02;;;7.43;;
40373;SDS011;26079;45.958;12.492;2023-05-07T07:52:30;8.93;;;8.23;;
40373;SDS011;26079;45.958;12.492;2023-05-07T07:54:56;9.02;;;8.30;;
40373;SDS011;26079;45.958;12.492;2023-05-07T07:57:22;8.95;;;8.25;;
40373;SDS011;26079;45.958;12.492;2023-05-07T07:59:47;18.08;;;16.85;;
40373;SDS011;26079;45.958;12.492;2023-05-07T08:02:13;8.23;;;7.63;;
40373;SDS011;26079;45.958;12.492;2023-05-07T08:04:38;6.75;;;6.10;;
40373;SDS011;26079;45.958;12.492;2023-05-07T08:07:04;6.15;;;5.53;;
40373;SDS011;26079;45.958;12.492;2023-05-07T08:09:30;7.20;;;6.53;;
40373;SDS011;26079;45.958;12.492;2023-05-07T08:11:56;5.75;;;5.25;;
40373;SDS011;26079;45.958;12.492;2023-05-07T08:14:22;4.38;;;4.07;;
40373;SDS011;26079;45.958;12.492;2023-05-07T08:16:48;5.75;;;5.25;;
40373;SDS011;26079;45.958;12.492;2023-05-07T08:19:13;5.90;;;4.65;;
40373;SDS011;26079;45.958;12.492;2023-05-07T08:21:39;5.82;;;5.32;;
40373;SDS011;26079;45.958;12.492;2023-05-07T08:24:05;7.70;;;5.65;;
40373;SDS011;26079;45.958;12.492;2023-05-07T08:26:31;5.13;;;4.40;;
40373;SDS011;26079;45.958;12.492;2023-05-07T08:28:56;5.63;;;5.13;;
40373;SDS011;26079;45.958;12.492;2023-05-07T08:31:22;4.88;;;4.30;;
40373;SDS011;26079;45.958;12.492;2023-05-07T08:33:48;5.97;;;5.47;;
40373;SDS011;26079;45.958;12.492;2023-05-07T08:36:13;5.13;;;3.78;;
40373;SDS011;26079;45.958;12.492;2023-05-07T08:38:39;3.95;;;3.65;;
40373;SDS011;26079;45.958;12.492;2023-05-07T08:41:09;4.43;;;3.42;;
40373;SDS011;26079;45.958;12.492;2023-05-07T08:43:35;3.40;;;3.10;;
40373;SDS011;26079;45.958;12.492;2023-05-07T08:46:02;3.10;;;2.90;;
40373;SDS011;26079;45.958;12.492;2023-05-07T08:48:30;4.18;;;3.67;;
40373;SDS011;26079;45.958;12.492;2023-05-07T08:50:57;3.40;;;2.83;;
40373;SDS011;26079;45.958;12.492;2023-05-07T08:53:24;4.50;;;4.07;;
40373;SDS011;26079;45.958;12.492;2023-05-07T08:55:50;3.50;;;2.55;;
40373;SDS011;26079;45.958;12.492;2023-05-07T08:58:17;4.00;;;3.33;;
40373;SDS011;26079;45.958;12.492;2023-05-07T09:00:42;3.22;;;3.03;;
40373;SDS011;26079;45.958;12.492;2023-05-07T09:03:08;11.13;;;4.20;;
40373;SDS011;26079;45.958;12.492;2023-05-07T09:05:37;4.90;;;3.47;;
40373;SDS011;26079;45.958;12.492;2023-05-07T09:08:03;4.18;;;3.83;;
40373;SDS011;26079;45.958;12.492;2023-05-07T09:10:30;4.05;;;3.65;;
40373;SDS011;26079;45.958;12.492;2023-05-07T09:12:58;4.03;;;3.65;;
40373;SDS011;26079;45.958;12.492;2023-05-07T09:15:26;4.88;;;4.40;;
40373;SDS011;26079;45.958;12.492;2023-05-07T09:17:53;4.05;;;3.67;;
40373;SDS011;26079;45.958;12.492;2023-05-07T09:20:19;5.70;;;3.70;;
40373;SDS011;26079;45.958;12.492;2023-05-07T09:22:45;4.57;;;4.18;;
40373;SDS011;26079;45.958;12.492;2023-05-07T09:25:10;4.45;;;4.15;;
40373;SDS011;26079;45.958;12.492;2023-05-07T09:27:36;4.95;;;3.22;;
40373;SDS011;26079;45.958;12.492;2023-05-07T09:30:05;6.40;;;3.58;;
40373;SDS011;26079;45.958;12.492;2023-05-07T09:32:35;4.53;;;4.13;;
40373;SDS011;26079;45.958;12.492;2023-05-07T09:35:05;5.72;;;4.05;;
40373;SDS011;26079;45.958;12.492;2023-05-07T09:37:31;5.95;;;3.65;;
40373;SDS011;26079;45.958;12.492;2023-05-07T09:39:57;3.72;;;3.42;;
40373;SDS011;26079;45.958;12.492;2023-05-07T09:42:24;4.28;;;3.33;;
40373;SDS011;26079;45.958;12.492;2023-05-07T09:44:51;5.57;;;4.03;;
40373;SDS011;26079;45.958;12.492;2023-05-07T09:47:18;4.20;;;3.53;;
40373;SDS011;26079;45.958;12.492;2023-05-07T09:49:46;7.65;;;3.70;;
40373;SDS011;26079;45.958;12.492;2023-05-07T09:52:13;3.72;;;3.42;;
40373;SDS011;26079;45.958;12.492;2023-05-07T09:54:39;5.53;;;3.38;;
40373;SDS011;26079;45.958;12.492;2023-05-07T09:57:08;6.85;;;3.50;;
40373;SDS011;26079;45.958;12.492;2023-05-07T09:59:36;7.55;;;4.70;;
40373;SDS011;26079;45.958;12.492;2023-05-07T10:02:03;4.22;;;3.83;;
40373;SDS011;26079;45.958;12.492;2023-05-07T10:04:29;3.78;;;3.47;;
40373;SDS011;26079;45.958;12.492;2023-05-07T10:06:56;11.63;;;5.88;;
40373;SDS011;26079;45.958;12.492;2023-05-07T10:09:22;3.50;;;3.20;;
40373;SDS011;26079;45.958;12.492;2023-05-07T10:11:48;5.50;;;5.00;;
40373;SDS011;26079;45.958;12.492;2023-05-07T10:14:15;4.35;;;3.55;;
40373;SDS011;26079;45.958;12.492;2023-05-07T10:16:40;7.60;;;3.05;;
40373;SDS011;26079;45.958;12.492;2023-05-07T10:19:07;6.00;;;5.30;;
40373;SDS011;26079;45.958;12.492;2023-05-07T10:21:38;5.70;;;3.83;;
40373;SDS011;26079;45.958;12.492;2023-05-07T10:24:09;3.97;;;3.67;;
40373;SDS011;26079;45.958;12.492;2023-05-07T10:26:45;8.30;;;5.10;;
40373;SDS011;26079;45.958;12.492;2023-05-07T10:29:16;4.88;;;4.57;;
40373;SDS011;26079;45.958;12.492;2023-05-07T10:32:01;7.40;;;3.92;;
40373;SDS011;26079;45.958;12.492;2023-05-07T10:34:45;15.20;;;14.27;;
40373;SDS011;26079;45.958;12.492;2023-05-07T10:37:14;5.97;;;5.03;;
40373;SDS011;26079;45.958;12.492;2023-05-07T10:39:40;4.80;;;3.72;;
40373;SDS011;26079;45.958;12.492;2023-05-07T10:42:09;3.47;;;3.22;;
40373;SDS011;26079;45.958;12.492;2023-05-07T10:44:36;4.22;;;3.85;;
40373;SDS011;26079;45.958;12.492;2023-05-07T10:47:12;5.03;;;4.68;;
40373;SDS011;26079;45.958;12.492;2023-05-07T10:52:17;5.18;;;4.65;;
40373;SDS011;26079;45.958;12.492;2023-05-07T10:54:44;5.15;;;4.65;;
40373;SDS011;26079;45.958;12.492;2023-05-07T11:00:02;5.97;;;4.40;;
40373;SDS011;26079;45.958;12.492;2023-05-07T11:05:22;5.13;;;4.63;;
40373;SDS011;26079;45.958;12.492;2023-05-07T11:07:54;4.60;;;4.30;;
40373;SDS011;26079;45.958;12.492;2023-05-07T11:10:21;4.50;;;4.10;;
40373;SDS011;26079;45.958;12.492;2023-05-07T11:12:48;4.40;;;4.10;;
40373;SDS011;26079;45.958;12.492;2023-05-07T11:15:15;4.68;;;4.05;;
40373;SDS011;26079;45.958;12.492;2023-05-07T11:17:58;4.88;;;4.47;;
40373;SDS011;26079;45.958;12.492;2023-05-07T11:26:00;4.82;;;3.97;;
40373;SDS011;26079;45.958;12.492;2023-05-07T11:28:36;6.53;;;6.03;;
40373;SDS011;26079;45.958;12.492;2023-05-07T11:31:03;4.38;;;3.97;;
40373;SDS011;26079;45.958;12.492;2023-05-07T11:33:32;7.10;;;4.38;;
40373;SDS011;26079;45.958;12.492;2023-05-07T11:35:59;5.57;;;4.20;;
40373;SDS011;26079;45.958;12.492;2023-05-07T11:38:25;7.00;;;4.43;;
40373;SDS011;26079;45.958;12.492;2023-05-07T11:40:52;6.18;;;4.78;;
40373;SDS011;26079;45.958;12.492;2023-05-07T11:43:20;4.32;;;3.80;;
40373;SDS011;26079;45.958;12.492;2023-05-07T11:45:46;4.68;;;4.20;;
40373;SDS011;26079;45.958;12.492;2023-05-07T11:48:13;4.55;;;4.25;;
40373;SDS011;26079;45.958;12.492;2023-05-07T11:50:49;9.93;;;4.63;;
40373;SDS011;26079;45.958;12.492;2023-05-07T11:53:16;3.90;;;3.60;;
40373;SDS011;26079;45.958;12.492;2023-05-07T11:55:42;5.45;;;4.93;;
40373;SDS011;26079;45.958;12.492;2023-05-07T11:58:10;8.00;;;4.97;;
40373;SDS011;26079;45.958;12.492;2023-05-07T12:00:37;6.57;;;3.88;;
40373;SDS011;26079;45.958;12.492;2023-05-07T12:03:03;3.95;;;3.65;;
40373;SDS011;26079;45.958;12.492;2023-05-07T12:05:30;9.07;;;5.43;;
40373;SDS011;26079;45.958;12.492;2023-05-07T12:07:58;6.00;;;3.78;;
40373;SDS011;26079;45.958;12.492;2023-05-07T12:10:24;3.53;;;3.20;;
40373;SDS011;26079;45.958;12.492;2023-05-07T12:12:49;4.45;;;4.05;;
40373;SDS011;26079;45.958;12.492;2023-05-07T12:15:16;7.15;;;4.15;;
40373;SDS011;26079;45.958;12.492;2023-05-07T12:17:42;4.03;;;3.72;;
40373;SDS011;26079;45.958;12.492;2023-05-07T12:20:08;8.48;;;4.10;;
40373;SDS011;26079;45.958;12.492;2023-05-07T12:22:35;5.40;;;5.00;;
40373;SDS011;26079;45.958;12.492;2023-05-07T12:25:02;7.82;;;5.57;;
40373;SDS011;26079;45.958;12.492;2023-05-07T12:27:28;4.40;;;3.92;;
40373;SDS011;26079;45.958;12.492;2023-05-07T12:29:56;3.97;;;3.63;;
40373;SDS011;26079;45.958;12.492;2023-05-07T12:32:22;5.90;;;3.97;;
40373;SDS011;26079;45.958;12.492;2023-05-07T12:34:51;19.55;;;6.13;;
40373;SDS011;26079;45.958;12.492;2023-05-07T12:37:22;6.03;;;5.53;;
40373;SDS011;26079;45.958;12.492;2023-05-07T12:40:02;6.47;;;4.97;;
40373;SDS011;26079;45.958;12.492;2023-05-07T12:42:37;24.17;;;22.77;;
40373;SDS011;26079;45.958;12.492;2023-05-07T12:45:11;5.20;;;4.47;;
40373;SDS011;26079;45.958;12.492;2023-05-07T12:47:38;9.02;;;4.68;;
40373;SDS011;26079;45.958;12.492;2023-05-07T12:50:07;5.30;;;4.80;;
40373;SDS011;26079;45.958;12.492;2023-05-07T12:52:33;6.10;;;5.00;;
40373;SDS011;26079;45.958;12.492;2023-05-07T12:55:05;4.60;;;4.20;;
40373;SDS011;26079;45.958;12.492;2023-05-07T12:57:39;6.75;;;4.63;;
40373;SDS011;26079;45.958;12.492;2023-05-07T13:00:06;5.50;;;5.00;;
40373;SDS011;26079;45.958;12.492;2023-05-07T13:02:33;5.38;;;4.90;;
40373;SDS011;26079;45.958;12.492;2023-05-07T13:04:59;6.80;;;4.25;;
40373;SDS011;26079;45.958;12.492;2023-05-07T13:07:25;5.72;;;5.07;;
40373;SDS011;26079;45.958;12.492;2023-05-07T13:09:50;4.97;;;4.45;;
40373;SDS011;26079;45.958;12.492;2023-05-07T13:12:16;7.15;;;6.55;;
40373;SDS011;26079;45.958;12.492;2023-05-07T13:14:42;5.70;;;5.20;;
40373;SDS011;26079;45.958;12.492;2023-05-07T13:17:07;4.82;;;4.35;;
40373;SDS011;26079;45.958;12.492;2023-05-07T13:19:33;7.00;;;6.15;;
40373;SDS011;26079;45.958;12.492;2023-05-07T13:21:59;10.07;;;5.55;;
40373;SDS011;26079;45.958;12.492;2023-05-07T13:24:24;7.70;;;5.85;;
40373;SDS011;26079;45.958;12.492;2023-05-07T13:26:50;9.10;;;5.85;;
40373;SDS011;26079;45.958;12.492;2023-05-07T13:29:15;12.00;;;7.45;;
40373;SDS011;26079;45.958;12.492;2023-05-07T13:31:41;5.68;;;5.15;;
40373;SDS011;26079;45.958;12.492;2023-05-07T13:34:09;7.15;;;6.65;;
40373;SDS011;26079;45.958;12.492;2023-05-07T13:36:34;6.53;;;6.03;;
40373;SDS011;26079;45.958;12.492;2023-05-07T13:39:02;5.07;;;4.57;;
40373;SDS011;26079;45.958;12.492;2023-05-07T13:41:28;6.63;;;6.13;;
40373;SDS011;26079;45.958;12.492;2023-05-07T13:43:54;7.45;;;6.53;;
40373;SDS011;26079;45.958;12.492;2023-05-07T13:46:21;6.10;;;5.65;;
40373;SDS011;26079;45.958;12.492;2023-05-07T13:48:46;6.82;;;5.13;;
40373;SDS011;26079;45.958;12.492;2023-05-07T13:51:12;6.55;;;5.95;;
40373;SDS011;26079;45.958;12.492;2023-05-07T13:53:38;7.03;;;6.45;;
40373;SDS011;26079;45.958;12.492;2023-05-07T13:56:04;6.53;;;6.13;;
40373;SDS011;26079;45.958;12.492;2023-05-07T13:58:30;10.35;;;8.48;;
40373;SDS011;26079;45.958;12.492;2023-05-07T14:00:55;9.00;;;6.75;;
40373;SDS011;26079;45.958;12.492;2023-05-07T14:03:21;16.05;;;10.32;;
40373;SDS011;26079;45.958;12.492;2023-05-07T14:05:47;8.20;;;7.32;;
40373;SDS011;26079;45.958;12.492;2023-05-07T14:08:12;7.00;;;6.40;;
40373;SDS011;26079;45.958;12.492;2023-05-07T14:10:39;6.38;;;5.88;;
40373;SDS011;26079;45.958;12.492;2023-05-07T14:13:06;6.60;;;5.82;;
40373;SDS011;26079;45.958;12.492;2023-05-07T14:15:32;7.15;;;6.55;;
40373;SDS011;26079;45.958;12.492;2023-05-07T14:17:58;12.23;;;10.88;;
40373;SDS011;26079;45.958;12.492;2023-05-07T14:20:25;7.93;;;5.22;;
40373;SDS011;26079;45.958;12.492;2023-05-07T14:22:50;6.35;;;5.50;;